sensor_id;sensor_type;location;lat;lon;timestamp;pressure;altitude;pressure_sealevel;temperature;humidity
84318;BME280;74497;51.654;14.238;2024-01-27T00:01:13;101509.09;;;5.04;100.00
84318;BME280;74497;51.654;14.238;2024-01-27T00:03:39;101512.50;;;5.06;100.00
84318;BME280;74497;51.654;14.238;2024-01-27T00:06:05;101507.41;;;5.03;100.00
84318;BME280;74497;51.654;14.238;2024-01-27T00:08:30;101514.41;;;5.04;100.00
84318;BME280;74497;51.654;14.238;2024-01-27T00:10:56;101506.47;;;5.04;100.00
84318;BME280;74497;51.654;14.238;2024-01-27T00:13:22;101517.13;;;5.02;100.00
84318;BME280;74497;51.654;14.238;2024-01-27T00:15:47;101505.69;;;5.02;100.00
84318;BME280;74497;51.654;14.238;2024-01-27T00:18:15;101521.56;;;5.02;100.00
84318;BME280;74497;51.654;14.238;2024-01-27T00:20:41;101522.84;;;4.95;100.00
84318;BME280;74497;51.654;14.238;2024-01-27T00:23:07;101526.19;;;4.98;100.00
84318;BME280;74497;51.654;14.238;2024-01-27T00:25:33;101531.41;;;5.00;100.00
84318;BME280;74497;51.654;14.238;2024-01-27T00:27:59;101533.88;;;5.03;100.00
84318;BME280;74497;51.654;14.238;2024-01-27T00:30:25;101535.59;;;5.04;100.00
84318;BME280;74497;51.654;14.238;2024-01-27T00:32:51;101533.78;;;5.04;100.00
84318;BME280;74497;51.654;14.238;2024-01-27T00:35:17;101539.25;;;5.01;100.00
84318;BME280;74497;51.654;14.238;2024-01-27T00:37:43;101545.38;;;5.02;100.00
84318;BME280;74497;51.654;14.238;2024-01-27T00:40:10;101541.41;;;4.95;100.00
84318;BME280;74497;51.654;14.238;2024-01-27T00:42:36;101552.78;;;4.97;100.00
84318;BME280;74497;51.654;14.238;2024-01-27T00:45:01;101535.25;;;4.94;100.00
84318;BME280;74497;51.654;14.238;2024-01-27T00:47:27;101540.91;;;4.88;100.00
84318;BME280;74497;51.654;14.238;2024-01-27T00:49:53;101544.38;;;4.88;100.00
84318;BME280;74497;51.654;14.238;2024-01-27T00:52:22;101547.97;;;4.87;100.00
84318;BME280;74497;51.654;14.238;2024-01-27T00:54:48;101548.94;;;4.86;100.00
84318;BME280;74497;51.654;14.238;2024-01-27T00:57:14;101553.47;;;4.84;100.00
84318;BME280;74497;51.654;14.238;2024-01-27T00:59:39;101559.31;;;4.89;100.00
84318;BME280;74497;51.654;14.238;2024-01-27T01:02:06;101570.09;;;4.86;100.00
84318;BME280;74497;51.654;14.238;2024-01-27T01:04:32;101566.50;;;4.87;100.00
84318;BME280;74497;51.654;14.238;2024-01-27T01:06:58;101556.97;;;4.85;100.00
84318;BME280;74497;51.654;14.238;2024-01-27T01:09:24;101557.56;;;4.90;100.00
84318;BME280;74497;51.654;14.238;2024-01-27T01:11:49;101563.28;;;4.82;100.00
84318;BME280;74497;51.654;14.238;2024-01-27T01:14:15;101563.13;;;4.85;100.00
84318;BME280;74497;51.654;14.238;2024-01-27T01:16:41;101575.56;;;4.83;100.00
84318;BME280;74497;51.654;14.238;2024-01-27T01:19:06;101568.50;;;4.84;100.00
84318;BME280;74497;51.654;14.238;2024-01-27T01:21:32;101569.50;;;4.81;100.00
84318;BME280;74497;51.654;14.238;2024-01-27T01:23:58;101576.59;;;4.81;100.00
84318;BME280;74497;51.654;14.238;2024-01-27T01:26:25;101567.06;;;4.78;100.00
84318;BME280;74497;51.654;14.238;2024-01-27T01:28:51;101570.78;;;4.74;100.00
84318;BME280;74497;51.654;14.238;2024-01-27T01:31:17;101574.81;;;4.81;100.00
84318;BME280;74497;51.654;14.238;2024-01-27T01:33:43;101575.06;;;4.77;100.00
84318;BME280;74497;51.654;14.238;2024-01-27T01:36:09;101580.63;;;4.72;100.00
84318;BME280;74497;51.654;14.238;2024-01-27T01:38:35;101583.28;;;4.72;100.00
84318;BME280;74497;51.654;14.238;2024-01-27T01:41:01;101585.13;;;4.70;100.00
84318;BME280;74497;51.654;14.238;2024-01-27T01:43:26;101591.56;;;4.66;100.00
84318;BME280;74497;51.654;14.238;2024-01-27T01:45:52;101590.59;;;4.67;100.00
84318;BME280;74497;51.654;14.238;2024-01-27T01:48:21;101591.56;;;4.66;100.00
84318;BME280;74497;51.654;14.238;2024-01-27T01:50:47;101598.69;;;4.64;100.00
84318;BME280;74497;51.654;14.238;2024-01-27T01:53:14;101596.31;;;4.59;100.00
84318;BME280;74497;51.654;14.238;2024-01-27T01:55:39;101606.97;;;4.58;100.00
84318;BME280;74497;51.654;14.238;2024-01-27T01:58:06;101606.97;;;4.58;100.00
84318;BME280;74497;51.654;14.238;2024-01-27T02:00:32;101609.47;;;4.61;100.00
84318;BME280;74497;51.654;14.238;2024-01-27T02:02:58;101614.75;;;4.61;100.00
84318;BME280;74497;51.654;14.238;2024-01-27T02:05:24;101613.16;;;4.58;100.00
84318;BME280;74497;51.654;14.238;2024-01-27T02:07:50;101619.34;;;4.57;100.00
84318;BME280;74497;51.654;14.238;2024-01-27T02:10:17;101623.22;;;4.52;100.00
84318;BME280;74497;51.654;14.238;2024-01-27T02:12:44;101627.47;;;4.54;100.00
84318;BME280;74497;51.654;14.238;2024-01-27T02:15:13;101618.44;;;4.58;100.00
84318;BME280;74497;51.654;14.238;2024-01-27T02:17:40;101603.66;;;4.54;100.00
84318;BME280;74497;51.654;14.238;2024-01-27T02:20:06;101598.69;;;4.48;100.00
84318;BME280;74497;51.654;14.238;2024-01-27T02:22:36;101612.78;;;4.49;100.00
84318;BME280;74497;51.654;14.238;2024-01-27T02:25:02;101602.09;;;4.50;100.00
84318;BME280;74497;51.654;14.238;2024-01-27T02:27:28;101597.09;;;4.46;100.00
84318;BME280;74497;51.654;14.238;2024-01-27T02:29:54;101595.34;;;4.45;100.00
84318;BME280;74497;51.654;14.238;2024-01-27T02:32:20;101596.72;;;4.36;100.00
84318;BME280;74497;51.654;14.238;2024-01-27T02:34:46;101603.19;;;4.30;100.00
84318;BME280;74497;51.654;14.238;2024-01-27T02:37:12;101610.97;;;4.33;100.00
84318;BME280;74497;51.654;14.238;2024-01-27T02:39:37;101612.91;;;4.30;100.00
84318;BME280;74497;51.654;14.238;2024-01-27T02:42:03;101615.66;;;4.28;100.00
84318;BME280;74497;51.654;14.238;2024-01-27T02:44:29;101617.34;;;4.29;100.00
84318;BME280;74497;51.654;14.238;2024-01-27T02:46:54;101613.94;;;4.27;100.00
84318;BME280;74497;51.654;14.238;2024-01-27T02:49:20;101609.84;;;4.22;100.00
84318;BME280;74497;51.654;14.238;2024-01-27T02:51:46;101611.69;;;4.20;100.00
84318;BME280;74497;51.654;14.238;2024-01-27T02:54:13;101620.66;;;4.17;100.00
84318;BME280;74497;51.654;14.238;2024-01-27T02:56:39;101615.53;;;4.14;100.00
84318;BME280;74497;51.654;14.238;2024-01-27T02:59:04;101618.19;;;4.14;100.00
84318;BME280;74497;51.654;14.238;2024-01-27T03:01:30;101624.47;;;4.12;100.00
84318;BME280;74497;51.654;14.238;2024-01-27T03:03:55;101617.56;;;4.09;100.00
84318;BME280;74497;51.654;14.238;2024-01-27T03:06:21;101626.25;;;4.11;100.00
84318;BME280;74497;51.654;14.238;2024-01-27T03:08:47;101631.78;;;4.06;100.00
84318;BME280;74497;51.654;14.238;2024-01-27T03:11:12;101630.34;;;4.01;100.00
84318;BME280;74497;51.654;14.238;2024-01-27T03:13:38;101626.13;;;3.97;100.00
84318;BME280;74497;51.654;14.238;2024-01-27T03:16:10;101628.78;;;3.97;100.00
84318;BME280;74497;51.654;14.238;2024-01-27T03:18:36;101626.28;;;3.94;100.00
84318;BME280;74497;51.654;14.238;2024-01-27T03:21:03;101620.47;;;3.87;100.00
84318;BME280;74497;51.654;14.238;2024-01-27T03:23:29;101626.00;;;3.83;100.00
84318;BME280;74497;51.654;14.238;2024-01-27T03:25:54;101618.22;;;3.79;100.00
84318;BME280;74497;51.654;14.238;2024-01-27T03:28:20;101620.19;;;3.76;100.00
84318;BME280;74497;51.654;14.238;2024-01-27T03:30:46;101624.03;;;3.69;100.00
84318;BME280;74497;51.654;14.238;2024-01-27T03:33:12;101629.28;;;3.70;100.00
84318;BME280;74497;51.654;14.238;2024-01-27T03:35:39;101625.84;;;3.68;100.00
84318;BME280;74497;51.654;14.238;2024-01-27T03:38:07;101633.72;;;3.70;100.00
84318;BME280;74497;51.654;14.238;2024-01-27T03:40:33;101630.88;;;3.73;100.00
84318;BME280;74497;51.654;14.238;2024-01-27T03:42:59;101649.63;;;3.68;100.00
84318;BME280;74497;51.654;14.238;2024-01-27T03:45:24;101646.13;;;3.68;100.00
84318;BME280;74497;51.654;14.238;2024-01-27T03:47:50;101652.97;;;3.72;100.00
84318;BME280;74497;51.654;14.238;2024-01-27T03:50:15;101658.25;;;3.72;100.00
84318;BME280;74497;51.654;14.238;2024-01-27T03:52:41;101656.53;;;3.71;100.00
84318;BME280;74497;51.654;14.238;2024-01-27T03:55:07;101665.31;;;3.71;100.00
84318;BME280;74497;51.654;14.238;2024-01-27T03:57:33;101675.72;;;3.74;100.00
84318;BME280;74497;51.654;14.238;2024-01-27T03:59:58;101660.13;;;3.70;100.00
84318;BME280;74497;51.654;14.238;2024-01-27T04:02:24;101676.84;;;3.70;100.00
84318;BME280;74497;51.654;14.238;2024-01-27T04:04:49;101673.16;;;3.73;100.00
84318;BME280;74497;51.654;14.238;2024-01-27T04:07:15;101679.94;;;3.78;100.00
84318;BME280;74497;51.654;14.238;2024-01-27T04:09:41;101683.34;;;3.80;100.00
84318;BME280;74497;51.654;14.238;2024-01-27T04:12:07;101684.91;;;3.85;100.00
84318;BME280;74497;51.654;14.238;2024-01-27T04:14:32;101677.75;;;3.87;100.00
84318;BME280;74497;51.654;14.238;2024-01-27T04:16:58;101686.31;;;3.92;100.00
84318;BME280;74497;51.654;14.238;2024-01-27T04:19:24;101686.16;;;3.95;100.00
84318;BME280;74497;51.654;14.238;2024-01-27T04:21:50;101702.47;;;4.03;100.00
84318;BME280;74497;51.654;14.238;2024-01-27T04:24:15;101689.09;;;4.06;100.00
84318;BME280;74497;51.654;14.238;2024-01-27T04:26:41;101696.09;;;4.07;100.00
84318;BME280;74497;51.654;14.238;2024-01-27T04:29:06;101706.50;;;4.10;100.00
84318;BME280;74497;51.654;14.238;2024-01-27T04:31:32;101699.22;;;4.15;100.00
84318;BME280;74497;51.654;14.238;2024-01-27T04:33:58;101704.19;;;4.21;100.00
84318;BME280;74497;51.654;14.238;2024-01-27T04:36:28;101709.47;;;4.21;100.00
84318;BME280;74497;51.654;14.238;2024-01-27T04:38:56;101717.41;;;4.21;100.00
84318;BME280;74497;51.654;14.238;2024-01-27T04:41:22;101705.03;;;4.22;100.00
84318;BME280;74497;51.654;14.238;2024-01-27T04:43:47;101706.75;;;4.23;100.00
84318;BME280;74497;51.654;14.238;2024-01-27T04:46:13;101713.50;;;4.28;100.00
84318;BME280;74497;51.654;14.238;2024-01-27T04:48:39;101713.41;;;4.30;100.00
84318;BME280;74497;51.654;14.238;2024-01-27T04:51:05;101713.59;;;4.27;100.00
84318;BME280;74497;51.654;14.238;2024-01-27T04:53:30;101719.56;;;4.30;100.00
84318;BME280;74497;51.654;14.238;2024-01-27T04:55:56;101709.28;;;4.24;100.00
84318;BME280;74497;51.654;14.238;2024-01-27T04:58:21;101725.03;;;4.27;100.00
84318;BME280;74497;51.654;14.238;2024-01-27T05:00:47;101704.50;;;4.15;100.00
84318;BME280;74497;51.654;14.238;2024-01-27T05:03:13;101688.53;;;4.17;100.00
84318;BME280;74497;51.654;14.238;2024-01-27T05:05:43;101682.50;;;4.15;100.00
84318;BME280;74497;51.654;14.238;2024-01-27T05:08:09;101697.34;;;4.17;100.00
84318;BME280;74497;51.654;14.238;2024-01-27T05:10:37;101706.34;;;4.13;100.00
84318;BME280;74497;51.654;14.238;2024-01-27T05:13:03;101713.19;;;4.17;100.00
84318;BME280;74497;51.654;14.238;2024-01-27T05:15:29;101712.34;;;4.17;100.00
84318;BME280;74497;51.654;14.238;2024-01-27T05:17:55;101719.66;;;4.12;100.00
84318;BME280;74497;51.654;14.238;2024-01-27T05:20:20;101722.22;;;4.13;100.00
84318;BME280;74497;51.654;14.238;2024-01-27T05:22:46;101723.09;;;4.14;100.00
84318;BME280;74497;51.654;14.238;2024-01-27T05:25:12;101728.28;;;4.15;100.00
84318;BME280;74497;51.654;14.238;2024-01-27T05:27:38;101724.94;;;4.12;100.00
84318;BME280;74497;51.654;14.238;2024-01-27T05:30:05;101740.88;;;4.10;100.00
84318;BME280;74497;51.654;14.238;2024-01-27T05:32:32;101738.06;;;4.13;100.00
84318;BME280;74497;51.654;14.238;2024-01-27T05:34:57;101736.38;;;4.12;100.00
84318;BME280;74497;51.654;14.238;2024-01-27T05:37:23;101738.25;;;4.10;100.00
84318;BME280;74497;51.654;14.238;2024-01-27T05:39:48;101740.81;;;4.12;100.00
84318;BME280;74497;51.654;14.238;2024-01-27T05:42:14;101756.53;;;4.15;100.00
84318;BME280;74497;51.654;14.238;2024-01-27T05:44:40;101745.25;;;4.11;100.00
84318;BME280;74497;51.654;14.238;2024-01-27T05:47:08;101757.53;;;4.12;100.00
84318;BME280;74497;51.654;14.238;2024-01-27T05:49:36;101749.53;;;4.14;100.00
84318;BME280;74497;51.654;14.238;2024-01-27T05:52:02;101757.53;;;4.12;100.00
84318;BME280;74497;51.654;14.238;2024-01-27T05:54:28;101767.16;;;4.13;100.00
84318;BME280;74497;51.654;14.238;2024-01-27T05:56:54;101765.13;;;4.18;100.00
84318;BME280;74497;51.654;14.238;2024-01-27T05:59:19;101773.06;;;4.18;100.00
84318;BME280;74497;51.654;14.238;2024-01-27T06:01:45;101780.88;;;4.21;100.00
84318;BME280;74497;51.654;14.238;2024-01-27T06:04:11;101787.09;;;4.20;100.00
84318;BME280;74497;51.654;14.238;2024-01-27T06:06:40;101795.03;;;4.20;100.00
84318;BME280;74497;51.654;14.238;2024-01-27T06:09:07;101785.34;;;4.19;100.00
84318;BME280;74497;51.654;14.238;2024-01-27T06:11:37;101795.78;;;4.22;100.00
84318;BME280;74497;51.654;14.238;2024-01-27T06:14:02;101808.94;;;4.24;100.00
84318;BME280;74497;51.654;14.238;2024-01-27T06:16:28;101805.44;;;4.23;100.00
84318;BME280;74497;51.654;14.238;2024-01-27T06:18:54;101811.66;;;4.22;100.00
84318;BME280;74497;51.654;14.238;2024-01-27T06:21:20;101813.38;;;4.23;100.00
84318;BME280;74497;51.654;14.238;2024-01-27T06:23:46;101823.41;;;4.17;100.00
84318;BME280;74497;51.654;14.238;2024-01-27T06:26:13;101819.91;;;4.16;100.00
84318;BME280;74497;51.654;14.238;2024-01-27T06:28:40;101825.81;;;4.21;100.00
84318;BME280;74497;51.654;14.238;2024-01-27T06:31:06;101828.69;;;4.17;100.00
84318;BME280;74497;51.654;14.238;2024-01-27T06:33:34;101826.69;;;4.22;100.00
84318;BME280;74497;51.654;14.238;2024-01-27T06:36:00;101831.13;;;4.21;100.00
84318;BME280;74497;51.654;14.238;2024-01-27T06:38:27;101832.97;;;4.19;100.00
84318;BME280;74497;51.654;14.238;2024-01-27T06:40:53;101830.31;;;4.19;100.00
84318;BME280;74497;51.654;14.238;2024-01-27T06:43:19;101840.28;;;4.14;100.00
84318;BME280;74497;51.654;14.238;2024-01-27T06:45:44;101838.25;;;4.19;100.00
84318;BME280;74497;51.654;14.238;2024-01-27T06:48:10;101840.88;;;4.19;100.00
84318;BME280;74497;51.654;14.238;2024-01-27T06:50:36;101840.19;;;4.16;100.00
84318;BME280;74497;51.654;14.238;2024-01-27T06:53:02;101846.03;;;4.22;100.00
84318;BME280;74497;51.654;14.238;2024-01-27T06:55:27;101845.41;;;4.17;100.00
84318;BME280;74497;51.654;14.238;2024-01-27T06:57:53;101848.78;;;4.21;100.00
84318;BME280;74497;51.654;14.238;2024-01-27T07:00:20;101860.34;;;4.18;100.00
84318;BME280;74497;51.654;14.238;2024-01-27T07:02:45;101858.72;;;4.16;100.00
84318;BME280;74497;51.654;14.238;2024-01-27T07:05:11;101872.88;;;4.15;100.00
84318;BME280;74497;51.654;14.238;2024-01-27T07:07:39;101879.16;;;4.12;100.00
84318;BME280;74497;51.654;14.238;2024-01-27T07:10:06;101880.72;;;4.16;100.00
84318;BME280;74497;51.654;14.238;2024-01-27T07:12:33;101881.66;;;4.15;100.00
84318;BME280;74497;51.654;14.238;2024-01-27T07:14:59;101890.28;;;4.19;100.00
84318;BME280;74497;51.654;14.238;2024-01-27T07:17:28;101891.97;;;4.20;100.00
84318;BME280;74497;51.654;14.238;2024-01-27T07:19:54;101899.06;;;4.19;100.00
84318;BME280;74497;51.654;14.238;2024-01-27T07:22:20;101898.94;;;4.22;100.00
84318;BME280;74497;51.654;14.238;2024-01-27T07:24:46;101901.28;;;4.28;100.00
84318;BME280;74497;51.654;14.238;2024-01-27T07:27:12;101908.09;;;4.32;100.00
84318;BME280;74497;51.654;14.238;2024-01-27T07:29:38;101908.28;;;4.29;100.00
84318;BME280;74497;51.654;14.238;2024-01-27T07:32:04;101914.72;;;4.24;100.00
84318;BME280;74497;51.654;14.238;2024-01-27T07:34:30;101908.50;;;4.25;100.00
84318;BME280;74497;51.654;14.238;2024-01-27T07:36:56;101922.44;;;4.28;100.00
84318;BME280;74497;51.654;14.238;2024-01-27T07:39:22;101925.84;;;4.30;100.00
84318;BME280;74497;51.654;14.238;2024-01-27T07:41:47;101926.56;;;4.34;100.00
84318;BME280;74497;51.654;14.238;2024-01-27T07:44:14;101928.06;;;4.40;100.00
84318;BME280;74497;51.654;14.238;2024-01-27T07:46:41;101935.06;;;4.41;100.00
84318;BME280;74497;51.654;14.238;2024-01-27T07:49:07;101933.19;;;4.43;100.00
84318;BME280;74497;51.654;14.238;2024-01-27T07:51:33;101932.25;;;4.44;100.00
84318;BME280;74497;51.654;14.238;2024-01-27T07:54:00;101929.53;;;4.45;100.00
84318;BME280;74497;51.654;14.238;2024-01-27T07:56:26;101931.31;;;4.45;100.00
84318;BME280;74497;51.654;14.238;2024-01-27T07:58:52;101941.84;;;4.46;100.00
84318;BME280;74497;51.654;14.238;2024-01-27T08:01:18;101950.66;;;4.47;100.00
84318;BME280;74497;51.654;14.238;2024-01-27T08:03:44;101953.19;;;4.48;100.00
84318;BME280;74497;51.654;14.238;2024-01-27T08:06:27;101958.41;;;4.50;100.00
84318;BME280;74497;51.654;14.238;2024-01-27T08:08:52;101951.41;;;4.49;100.00
84318;BME280;74497;51.654;14.238;2024-01-27T08:11:18;101953.94;;;4.52;100.00
84318;BME280;74497;51.654;14.238;2024-01-27T08:13:44;101958.13;;;4.56;100.00
84318;BME280;74497;51.654;14.238;2024-01-27T08:16:10;101965.91;;;4.59;100.00
84318;BME280;74497;51.654;14.238;2024-01-27T08:18:41;101967.63;;;4.60;100.00
84318;BME280;74497;51.654;14.238;2024-01-27T08:21:11;101960.00;;;4.54;100.00
84318;BME280;74497;51.654;14.238;2024-01-27T08:23:39;101961.41;;;4.61;100.00
84318;BME280;74497;51.654;14.238;2024-01-27T08:26:05;101961.41;;;4.61;100.00
84318;BME280;74497;51.654;14.238;2024-01-27T08:28:31;101960.53;;;4.60;100.00
84318;BME280;74497;51.654;14.238;2024-01-27T08:30:56;101965.97;;;4.57;100.00
84318;BME280;74497;51.654;14.238;2024-01-27T08:33:22;101973.69;;;4.62;100.00
84318;BME280;74497;51.654;14.238;2024-01-27T08:35:48;101972.06;;;4.59;100.00
84318;BME280;74497;51.654;14.238;2024-01-27T08:38:14;101985.59;;;4.53;100.00
84318;BME280;74497;51.654;14.238;2024-01-27T08:40:40;101973.84;;;4.59;100.00
84318;BME280;74497;51.654;14.238;2024-01-27T08:43:06;101982.41;;;4.64;100.00
84318;BME280;74497;51.654;14.238;2024-01-27T08:45:32;101983.03;;;4.69;100.00
84318;BME280;74497;51.654;14.238;2024-01-27T08:47:58;101982.25;;;4.67;100.00
84318;BME280;74497;51.654;14.238;2024-01-27T08:50:24;101975.09;;;4.69;100.00
84318;BME280;74497;51.654;14.238;2024-01-27T08:52:49;101971.38;;;4.73;100.00
84318;BME280;74497;51.654;14.238;2024-01-27T08:55:15;101973.09;;;4.74;100.00
84318;BME280;74497;51.654;14.238;2024-01-27T08:57:46;101979.88;;;4.80;100.00
84318;BME280;74497;51.654;14.238;2024-01-27T09:00:12;101992.03;;;4.84;100.00
84318;BME280;74497;51.654;14.238;2024-01-27T09:02:38;101995.06;;;4.94;100.00
84318;BME280;74497;51.654;14.238;2024-01-27T09:05:04;102004.56;;;4.98;100.00
84318;BME280;74497;51.654;14.238;2024-01-27T09:07:31;102003.47;;;5.02;100.00
84318;BME280;74497;51.654;14.238;2024-01-27T09:09:57;102000.97;;;4.99;100.00
84318;BME280;74497;51.654;14.238;2024-01-27T09:12:22;102002.69;;;5.00;100.00
84318;BME280;74497;51.654;14.238;2024-01-27T09:14:48;102005.03;;;5.06;100.00
84318;BME280;74497;51.654;14.238;2024-01-27T09:17:13;102005.25;;;5.01;100.00
84318;BME280;74497;51.654;14.238;2024-01-27T09:19:39;102011.72;;;5.13;100.00
84318;BME280;74497;51.654;14.238;2024-01-27T09:22:05;102007.19;;;5.15;100.00
84318;BME280;74497;51.654;14.238;2024-01-27T09:24:30;102015.63;;;5.23;100.00
84318;BME280;74497;51.654;14.238;2024-01-27T09:26:56;102006.22;;;5.18;100.00
84318;BME280;74497;51.654;14.238;2024-01-27T09:29:22;102020.13;;;5.21;100.00
84318;BME280;74497;51.654;14.238;2024-01-27T09:31:47;102016.09;;;5.14;100.00
84318;BME280;74497;51.654;14.238;2024-01-27T09:34:13;102015.00;;;5.18;100.00
84318;BME280;74497;51.654;14.238;2024-01-27T09:36:39;102013.31;;;5.17;100.00
84318;BME280;74497;51.654;14.238;2024-01-27T09:39:04;102027.31;;;5.19;100.00
84318;BME280;74497;51.654;14.238;2024-01-27T09:41:31;102032.78;;;5.16;100.00
84318;BME280;74497;51.654;14.238;2024-01-27T09:44:04;102020.84;;;5.07;100.00
84318;BME280;74497;51.654;14.238;2024-01-27T09:46:31;102027.63;;;5.13;100.00
84318;BME280;74497;51.654;14.238;2024-01-27T09:48:57;102028.25;;;5.18;100.00
84318;BME280;74497;51.654;14.238;2024-01-27T09:51:24;102025.06;;;5.29;100.00
84318;BME280;74497;51.654;14.238;2024-01-27T09:53:51;102027.72;;;5.29;100.00
84318;BME280;74497;51.654;14.238;2024-01-27T09:56:17;102032.16;;;5.28;100.00
84318;BME280;74497;51.654;14.238;2024-01-27T09:58:47;102043.06;;;5.22;100.00
84318;BME280;74497;51.654;14.238;2024-01-27T10:01:19;102033.31;;;5.23;100.00
84318;BME280;74497;51.654;14.238;2024-01-27T10:03:46;102034.94;;;5.25;100.00
84318;BME280;74497;51.654;14.238;2024-01-27T10:06:12;102029.66;;;5.25;100.00
84318;BME280;74497;51.654;14.238;2024-01-27T10:08:40;102036.59;;;5.10;100.00
84318;BME280;74497;51.654;14.238;2024-01-27T10:11:09;102050.28;;;5.19;100.00
84318;BME280;74497;51.654;14.238;2024-01-27T10:13:36;102037.50;;;5.27;100.00
84318;BME280;74497;51.654;14.238;2024-01-27T10:16:05;102038.31;;;5.29;100.00
84318;BME280;74497;51.654;14.238;2024-01-27T10:18:32;102034.25;;;5.39;100.00
84318;BME280;74497;51.654;14.238;2024-01-27T10:20:58;102041.50;;;5.35;100.00
84318;BME280;74497;51.654;14.238;2024-01-27T10:23:24;102041.25;;;5.40;100.00
84318;BME280;74497;51.654;14.238;2024-01-27T10:25:50;102043.53;;;5.48;100.00
84318;BME280;74497;51.654;14.238;2024-01-27T10:28:16;102040.06;;;5.46;100.00
84318;BME280;74497;51.654;14.238;2024-01-27T10:30:43;102036.66;;;5.43;100.00
84318;BME280;74497;51.654;14.238;2024-01-27T10:33:09;102045.38;;;5.46;100.00
84318;BME280;74497;51.654;14.238;2024-01-27T10:35:36;102032.66;;;5.52;100.00
84318;BME280;74497;51.654;14.238;2024-01-27T10:38:02;102040.69;;;5.51;100.00
84318;BME280;74497;51.654;14.238;2024-01-27T10:40:28;102039.75;;;5.52;100.00
84318;BME280;74497;51.654;14.238;2024-01-27T10:43:07;102047.03;;;5.48;100.00
84318;BME280;74497;51.654;14.238;2024-01-27T10:45:40;102040.34;;;5.41;100.00
84318;BME280;74497;51.654;14.238;2024-01-27T10:48:08;102052.38;;;5.47;100.00
84318;BME280;74497;51.654;14.238;2024-01-27T10:50:38;102053.72;;;5.55;100.00
84318;BME280;74497;51.654;14.238;2024-01-27T10:53:05;102067.66;;;5.59;100.00
84318;BME280;74497;51.654;14.238;2024-01-27T10:55:34;102059.88;;;5.56;100.00
84318;BME280;74497;51.654;14.238;2024-01-27T10:58:03;102061.59;;;5.57;100.00
84318;BME280;74497;51.654;14.238;2024-01-27T11:00:29;102061.50;;;5.58;100.00
84318;BME280;74497;51.654;14.238;2024-01-27T11:02:59;102063.84;;;5.64;100.00
84318;BME280;74497;51.654;14.238;2024-01-27T11:05:28;102062.22;;;5.62;100.00
84318;BME280;74497;51.654;14.238;2024-01-27T11:07:55;102051.19;;;5.69;100.00
84318;BME280;74497;51.654;14.238;2024-01-27T11:10:22;102052.78;;;5.74;100.00
84318;BME280;74497;51.654;14.238;2024-01-27T11:12:49;102058.84;;;5.76;100.00
84318;BME280;74497;51.654;14.238;2024-01-27T11:15:15;102060.63;;;5.75;100.00
84318;BME280;74497;51.654;14.238;2024-01-27T11:17:42;102051.97;;;5.72;100.00
84318;BME280;74497;51.654;14.238;2024-01-27T11:20:09;102060.41;;;5.62;100.00
84318;BME280;74497;51.654;14.238;2024-01-27T11:22:37;102073.50;;;5.65;100.00
84318;BME280;74497;51.654;14.238;2024-01-27T11:27:42;102074.22;;;5.69;100.00
84318;BME280;74497;51.654;14.238;2024-01-27T11:30:25;102079.19;;;5.75;100.00
84318;BME280;74497;51.654;14.238;2024-01-27T11:32:57;102073.81;;;5.77;100.00
84318;BME280;74497;51.654;14.238;2024-01-27T11:35:26;102076.22;;;5.81;100.00
84318;BME280;74497;51.654;14.238;2024-01-27T11:37:52;102085.88;;;5.82;100.00
84318;BME280;74497;51.654;14.238;2024-01-27T11:40:18;102086.50;;;5.87;100.00
84318;BME280;74497;51.654;14.238;2024-01-27T11:42:53;102079.56;;;5.85;100.00
84318;BME280;74497;51.654;14.238;2024-01-27T11:45:19;102093.06;;;5.80;100.00
84318;BME280;74497;51.654;14.238;2024-01-27T11:47:45;102092.44;;;5.75;100.00
84318;BME280;74497;51.654;14.238;2024-01-27T11:50:11;102096.13;;;5.73;100.00
84318;BME280;74497;51.654;14.238;2024-01-27T11:52:37;102102.34;;;5.72;100.00
84318;BME280;74497;51.654;14.238;2024-01-27T11:55:03;102101.44;;;5.73;100.00
84318;BME280;74497;51.654;14.238;2024-01-27T11:57:29;102099.69;;;5.72;100.00
84318;BME280;74497;51.654;14.238;2024-01-27T11:59:55;102109.44;;;5.71;100.00
84318;BME280;74497;51.654;14.238;2024-01-27T12:02:21;102110.38;;;5.70;100.00
84318;BME280;74497;51.654;14.238;2024-01-27T12:04:47;102104.94;;;5.73;100.00
84318;BME280;74497;51.654;14.238;2024-01-27T12:07:14;102114.59;;;5.74;100.00
84318;BME280;74497;51.654;14.238;2024-01-27T12:09:40;102112.50;;;5.81;100.00
84318;BME280;74497;51.654;14.238;2024-01-27T12:12:06;102113.97;;;5.86;100.00
84318;BME280;74497;51.654;14.238;2024-01-27T12:14:46;102110.09;;;5.93;100.00
84318;BME280;74497;51.654;14.238;2024-01-27T12:17:12;102116.41;;;5.74;100.00
84318;BME280;74497;51.654;14.238;2024-01-27T12:19:38;102108.81;;;5.83;100.00
84318;BME280;74497;51.654;14.238;2024-01-27T12:22:05;102124.56;;;5.86;100.00
84318;BME280;74497;51.654;14.238;2024-01-27T12:24:30;102118.66;;;5.99;100.00
84318;BME280;74497;51.654;14.238;2024-01-27T12:26:59;102114.56;;;6.09;100.00
84318;BME280;74497;51.654;14.238;2024-01-27T12:29:25;102119.63;;;6.13;100.00
84318;BME280;74497;51.654;14.238;2024-01-27T12:31:50;102129.53;;;6.10;100.00
84318;BME280;74497;51.654;14.238;2024-01-27T12:34:18;102127.50;;;6.15;100.00
84318;BME280;74497;51.654;14.238;2024-01-27T12:36:44;102124.72;;;6.18;100.00
84318;BME280;74497;51.654;14.238;2024-01-27T12:39:10;102130.78;;;6.20;100.00